Addyston, Ohio
Current Conditions -  °F | °C
As of 8:52 PM on Wednesday 22 Oct 2014 (Local Time) from KCVG Reporting Station
Broken Clouds Broken Clouds  
Wind Chill: 47°   Ceiling: 2900
Heat Index: 49°   Visibility: 10mi
Dew Point: 39°   Wind: 5mph
Humidity: 69%   Direction: 30°NNE
Pressure: 30.27"   Gusts: NA
Location:  39.14°N, 84.71°W
Report Text: KCVG 230052Z 03004KT 10SM BKN029 09/04 A3027 RMK AO2 SLP251 T00940039
Loading
Personal Weather Stations






























Interactive Weather Map
Tropical Storm Tracking
New forecast layout! Learn more

10-Day Weather Forecast

Advertisements
Track Severe Weather on mobile